Time;durP1;ratioP1;P1;durP2;ratioP2;P2;SDS_P1;SDS_P2;PMS_P1;PMS_P2;Temp;Humidity;BMP_temperature;BMP_pressure;BME280_temperature;BME280_humidity;BME280_pressure;Samples;Min_cycle;Max_cycle;Signal;HPM_P1;HPM_P2
2020/12/27 00:02:12;;;;;;;8.52;5.13;;;;;;;-0.84;68.44;98524.84;4927093;28;45345;-72
2020/12/27 00:04:38;;;;;;;8.27;4.32;;;;;;;-0.84;68.23;98519.63;4929812;28;45252;-73
2020/12/27 00:07:07;;;;;;;7.47;4.35;;;;;;;-0.71;68.21;98512.84;4939863;28;45323;-72
2020/12/27 00:09:32;;;;;;;7.15;4.20;;;;;;;-0.74;67.00;98516.47;4939266;28;45553;-73
2020/12/27 00:11:58;;;;;;;7.65;4.03;;;;;;;-0.75;68.08;98504.34;4939856;28;45378;-72
2020/12/27 00:14:23;;;;;;;7.75;4.60;;;;;;;-0.80;69.26;98510.69;4939842;28;45468;-73
2020/12/27 00:16:48;;;;;;;7.47;4.18;;;;;;;-0.85;68.75;98507.47;4939483;28;45330;-72
2020/12/27 00:19:14;;;;;;;11.10;5.22;;;;;;;-0.83;69.07;98500.41;4939635;28;45545;-73
2020/12/27 00:21:39;;;;;;;6.85;4.05;;;;;;;-0.85;68.24;98497.03;4939607;28;45260;-73
2020/12/27 00:24:05;;;;;;;8.00;4.47;;;;;;;-0.83;68.48;98496.03;4939499;28;45334;-72
2020/12/27 00:26:30;;;;;;;6.38;3.72;;;;;;;-0.77;68.50;98494.88;4939598;28;45417;-72
2020/12/27 00:28:55;;;;;;;8.55;4.38;;;;;;;-0.83;68.01;98497.81;4939825;28;45543;-73
2020/12/27 00:31:21;;;;;;;9.20;5.05;;;;;;;-0.82;68.27;98491.66;4939464;28;45479;-72
2020/12/27 00:33:46;;;;;;;8.45;4.93;;;;;;;-0.84;69.44;98488.28;4937912;28;46827;-72
2020/12/27 00:36:17;;;;;;;10.45;4.72;;;;;;;-0.77;68.11;98476.59;4939243;28;45510;-72
2020/12/27 00:38:43;;;;;;;9.85;4.50;;;;;;;-0.73;68.29;98475.50;4939562;28;45409;-72
2020/12/27 00:41:08;;;;;;;7.72;4.47;;;;;;;-0.89;68.66;98473.69;4939447;28;45353;-72
2020/12/27 00:43:33;;;;;;;6.55;3.88;;;;;;;-0.87;68.32;98463.19;4939324;28;46198;-72
2020/12/27 00:45:59;;;;;;;7.40;4.00;;;;;;;-0.94;69.33;98465.25;4954092;28;45485;-73
2020/12/27 00:48:24;;;;;;;6.90;4.22;;;;;;;-0.98;69.40;98450.66;4939114;28;45342;-73
2020/12/27 00:50:50;;;;;;;7.20;4.40;;;;;;;-1.01;69.77;98450.81;4939332;28;45274;-72
2020/12/27 00:53:15;;;;;;;7.03;4.38;;;;;;;-1.00;69.71;98452.50;4938024;28;48299;-73
2020/12/27 00:55:43;;;;;;;9.07;4.30;;;;;;;-1.07;69.85;98444.13;4939002;28;45534;-72
2020/12/27 00:58:08;;;;;;;6.65;3.95;;;;;;;-0.93;68.95;98435.59;4939379;28;45220;-72
2020/12/27 01:00:33;;;;;;;7.55;3.90;;;;;;;-0.92;69.53;98429.44;4938169;28;45387;-72
2020/12/27 01:02:59;;;;;;;6.47;4.13;;;;;;;-0.89;68.77;98431.91;4926994;28;45303;-73
2020/12/27 01:05:24;;;;;;;5.72;3.80;;;;;;;-1.06;69.80;98422.31;4938704;28;45243;-73
2020/12/27 01:07:50;;;;;;;6.57;4.10;;;;;;;-0.99;68.95;98420.25;4939417;28;45224;-73
2020/12/27 01:10:16;;;;;;;6.53;3.88;;;;;;;-1.15;68.97;98409.75;4939036;28;45424;-72
2020/12/27 01:12:41;;;;;;;7.18;4.03;;;;;;;-1.12;69.21;98411.38;4939113;28;46273;-72
2020/12/27 01:15:08;;;;;;;5.90;3.72;;;;;;;-1.15;70.08;98406.31;4937676;28;45272;-73
2020/12/27 01:17:33;;;;;;;6.93;3.60;;;;;;;-1.26;70.98;98404.22;4938907;28;45398;-72
2020/12/27 01:19:59;;;;;;;8.20;3.63;;;;;;;-1.70;72.08;98405.50;4938432;28;45592;-72
2020/12/27 01:22:24;;;;;;;6.60;3.72;;;;;;;-1.90;73.98;98402.13;4942214;28;45306;-72
2020/12/27 01:24:50;;;;;;;6.68;3.97;;;;;;;-1.61;72.72;98394.63;4942278;28;45351;-72
2020/12/27 01:27:15;;;;;;;6.57;4.05;;;;;;;-1.39;71.46;98389.19;4941199;28;45346;-73
2020/12/27 01:29:40;;;;;;;6.80;4.15;;;;;;;-1.38;71.40;98387.41;4942327;28;45481;-72
2020/12/27 01:32:06;;;;;;;9.07;4.78;;;;;;;-1.12;69.10;98374.81;4942083;28;45404;-72
2020/12/27 01:34:31;;;;;;;8.15;4.03;;;;;;;-1.09;69.64;98378.09;4941909;28;45448;-72
2020/12/27 01:36:57;;;;;;;8.23;4.60;;;;;;;-1.05;69.33;98373.56;4942237;28;45565;-73
2020/12/27 01:39:22;;;;;;;8.98;4.50;;;;;;;-1.11;68.90;98371.28;4942076;28;45462;-73
2020/12/27 01:41:51;;;;;;;7.47;4.15;;;;;;;-1.75;73.20;98377.06;4942143;28;45278;-73
2020/12/27 01:44:16;;;;;;;5.80;3.50;;;;;;;-1.66;71.86;98379.22;4941898;28;45462;-73
2020/12/27 01:46:44;;;;;;;11.05;5.90;;;;;;;-2.07;74.23;98369.88;4942183;28;45441;-73
2020/12/27 01:49:10;;;;;;;8.77;5.18;;;;;;;-1.81;72.60;98372.97;4940335;28;45469;-73
2020/12/27 01:51:37;;;;;;;7.25;4.00;;;;;;;-1.49;71.02;98356.66;4941963;28;45342;-73
2020/12/27 01:54:03;;;;;;;7.53;4.10;;;;;;;-1.39;71.44;98359.63;4941761;28;45351;-73
2020/12/27 01:56:33;;;;;;;8.10;4.05;;;;;;;-1.42;71.15;98345.00;4941990;28;45291;-73
2020/12/27 01:59:05;;;;;;;7.18;3.80;;;;;;;-1.38;70.83;98349.13;4941641;28;45497;-73
2020/12/27 02:01:32;;;;;;;6.63;4.00;;;;;;;-1.32;70.65;98350.59;4933336;28;46053;-73
2020/12/27 02:04:01;;;;;;;7.15;3.97;;;;;;;-1.22;69.97;98348.34;4951739;28;45521;-73
2020/12/27 02:06:27;;;;;;;8.50;4.25;;;;;;;-1.25;69.80;98340.66;4942063;28;45328;-73
2020/12/27 02:08:52;;;;;;;7.95;4.20;;;;;;;-1.26;70.28;98333.75;4941602;28;45505;-73
2020/12/27 02:11:19;;;;;;;7.93;4.07;;;;;;;-1.22;70.23;98324.84;4940229;28;46849;-73
2020/12/27 02:13:58;;;;;;;7.85;3.88;;;;;;;-1.30;70.43;98330.47;4941415;28;45319;-73
2020/12/27 02:16:26;;;;;;;12.40;5.07;;;;;;;-1.53;72.05;98335.09;4941412;28;45367;-73
2020/12/27 02:18:56;;;;;;;9.02;4.10;;;;;;;-2.03;75.23;98325.44;4941039;28;45318;-73
2020/12/27 02:21:23;;;;;;;8.73;4.85;;;;;;;-2.04;74.79;98323.75;4941560;28;45547;-73
2020/12/27 02:23:49;;;;;;;10.35;5.60;;;;;;;-1.73;73.28;98325.69;4941271;28;45382;-73
2020/12/27 02:26:14;;;;;;;6.88;4.38;;;;;;;-1.55;71.87;98326.50;4941669;28;45307;-73
2020/12/27 02:28:40;;;;;;;7.05;3.70;;;;;;;-1.38;70.66;98324.78;4941537;28;45385;-73
2020/12/27 02:31:06;;;;;;;7.20;3.90;;;;;;;-1.30;69.84;98319.19;4941214;28;45386;-73
2020/12/27 02:33:32;;;;;;;7.90;4.28;;;;;;;-1.48;70.88;98312.22;4940191;28;45358;-73
2020/12/27 02:35:57;;;;;;;6.20;4.10;;;;;;;-1.42;70.91;98318.03;4941371;28;45524;-73
2020/12/27 02:38:23;;;;;;;6.82;4.30;;;;;;;-1.45;71.12;98316.44;4941253;28;45244;-73
2020/12/27 02:40:48;;;;;;;5.70;3.33;;;;;;;-1.49;71.54;98309.69;4941090;28;46319;-73
2020/12/27 02:43:15;;;;;;;6.30;3.78;;;;;;;-2.51;77.19;98305.94;4940957;28;45212;-73
2020/12/27 02:45:41;;;;;;;6.03;3.67;;;;;;;-2.65;77.47;98292.72;4941370;28;45299;-73
2020/12/27 02:48:07;;;;;;;6.93;3.35;;;;;;;-2.84;79.63;98280.53;4940591;28;45265;-73
2020/12/27 02:50:33;;;;;;;6.05;3.30;;;;;;;-2.30;76.10;98265.88;4941007;28;46148;-73
2020/12/27 02:52:58;;;;;;;6.10;3.67;;;;;;;-1.88;74.09;98261.22;4940930;28;45322;-73
2020/12/27 02:55:24;;;;;;;5.82;3.78;;;;;;;-1.73;73.99;98244.84;4941039;28;45448;-73
2020/12/27 02:57:49;;;;;;;6.32;3.58;;;;;;;-1.50;72.27;98225.38;4940950;28;45484;-73
2020/12/27 03:00:14;;;;;;;7.22;4.00;;;;;;;-1.52;71.63;98211.56;4940589;28;45360;-73
2020/12/27 03:02:40;;;;;;;7.35;4.20;;;;;;;-1.49;71.32;98195.75;4927636;28;45326;-73
2020/12/27 03:05:05;;;;;;;10.30;4.10;;;;;;;-1.49;71.03;98193.13;4940530;28;45550;-73
2020/12/27 03:07:31;;;;;;;9.50;5.22;;;;;;;-1.41;70.30;98191.88;4940732;28;45579;-73
2020/12/27 03:09:56;;;;;;;7.60;4.40;;;;;;;-1.42;70.79;98180.63;4940731;28;45987;-73
2020/12/27 03:12:22;;;;;;;8.75;4.90;;;;;;;-1.44;70.80;98164.22;4940535;28;45475;-73
2020/12/27 03:14:47;;;;;;;8.23;4.72;;;;;;;-1.45;71.09;98152.09;4940873;28;45239;-73
2020/12/27 03:17:13;;;;;;;8.95;4.82;;;;;;;-1.38;70.13;98147.34;4940404;28;45642;-73
2020/12/27 03:19:38;;;;;;;8.07;4.75;;;;;;;-1.36;69.94;98143.75;4940147;28;45987;-73
2020/12/27 03:22:03;;;;;;;8.73;4.50;;;;;;;-1.51;70.51;98131.56;4955342;28;45545;-73
2020/12/27 03:24:29;;;;;;;7.88;4.72;;;;;;;-1.50;71.16;98120.19;4939364;28;45513;-73
2020/12/27 03:26:54;;;;;;;7.70;4.40;;;;;;;-1.90;73.24;98128.38;4940512;28;45405;-73
2020/12/27 03:29:20;;;;;;;7.38;4.25;;;;;;;-1.62;72.04;98121.69;4939159;28;48041;-73
2020/12/27 03:31:45;;;;;;;7.07;4.40;;;;;;;-1.57;71.64;98105.78;4938952;28;45408;-73
2020/12/27 03:34:11;;;;;;;9.73;4.82;;;;;;;-1.56;71.24;98103.09;4940258;28;45222;-73
2020/12/27 03:36:36;;;;;;;8.02;4.93;;;;;;;-1.57;71.65;98098.78;4940223;28;45281;-73
2020/12/27 03:39:02;;;;;;;6.78;4.65;;;;;;;-1.52;70.86;98101.16;4940284;28;45315;-73
2020/12/27 03:41:27;;;;;;;8.13;4.32;;;;;;;-1.52;71.57;98095.97;4940369;28;45763;-73
2020/12/27 03:43:52;;;;;;;6.80;3.60;;;;;;;-1.52;71.83;98106.38;4940349;28;45493;-73
2020/12/27 03:46:18;;;;;;;6.88;3.47;;;;;;;-1.57;72.17;98097.97;4954837;28;45529;-73
2020/12/27 03:48:43;;;;;;;5.82;3.38;;;;;;;-1.92;74.42;98099.75;4939889;28;45425;-73
2020/12/27 03:51:09;;;;;;;7.47;4.43;;;;;;;-1.69;73.02;98099.47;4939992;28;45487;-73
2020/12/27 03:53:34;;;;;;;12.23;6.35;;;;;;;-2.25;75.83;98104.97;4940315;28;45459;-73
2020/12/27 03:55:59;;;;;;;9.80;5.68;;;;;;;-2.73;77.47;98107.38;4938997;28;45575;-73
2020/12/27 03:58:25;;;;;;;8.65;4.72;;;;;;;-2.33;75.02;98091.50;4940086;28;45485;-73
2020/12/27 04:00:50;;;;;;;8.10;3.97;;;;;;;-2.33;75.41;98096.69;4936670;28;45612;-73
2020/12/27 04:03:17;;;;;;;7.53;4.32;;;;;;;-2.21;74.39;98094.31;4929899;28;45278;-73
2020/12/27 04:05:42;;;;;;;9.20;5.03;;;;;;;-1.99;73.63;98085.38;4938427;28;45708;-73
2020/12/27 04:08:07;;;;;;;10.85;5.93;;;;;;;-1.74;71.96;98073.66;4938591;28;47418;-73
2020/12/27 04:10:33;;;;;;;7.95;4.97;;;;;;;-1.65;71.34;98069.69;4939703;28;45220;-73
2020/12/27 04:12:58;;;;;;;9.73;5.40;;;;;;;-1.68;71.13;98065.50;4940314;28;45288;-73
2020/12/27 04:15:23;;;;;;;10.65;5.57;;;;;;;-1.64;70.53;98061.78;4939783;28;45687;-73
2020/12/27 04:17:49;;;;;;;8.98;5.28;;;;;;;-1.60;70.96;98051.19;4939416;28;45434;-73
2020/12/27 04:20:14;;;;;;;8.75;5.28;;;;;;;-1.75;71.74;98048.50;4939277;28;45263;-73
2020/12/27 04:22:40;;;;;;;8.82;5.03;;;;;;;-1.84;71.59;98025.50;4939880;28;45345;-73
2020/12/27 04:25:05;;;;;;;9.02;5.32;;;;;;;-2.18;73.72;98022.97;4939721;28;45287;-73
2020/12/27 04:27:30;;;;;;;10.60;5.18;;;;;;;-1.87;72.71;98023.06;4939629;28;45394;-73
2020/12/27 04:29:56;;;;;;;8.48;5.00;;;;;;;-1.74;71.91;98013.69;4939618;28;45215;-73
2020/12/27 04:32:25;;;;;;;6.50;3.92;;;;;;;-1.68;71.46;98007.28;4939638;28;45431;-73
2020/12/27 04:34:50;;;;;;;7.38;3.95;;;;;;;-1.65;70.81;97994.91;4939164;28;45434;-73
2020/12/27 04:37:16;;;;;;;6.95;4.15;;;;;;;-1.65;71.01;97983.63;4939206;28;45975;-73
2020/12/27 04:39:41;;;;;;;7.10;4.10;;;;;;;-1.67;71.16;97988.09;4939227;28;45318;-73
2020/12/27 04:42:08;;;;;;;8.70;5.10;;;;;;;-1.68;71.20;97987.25;4939631;28;45326;-73
2020/12/27 04:44:36;;;;;;;8.25;4.95;;;;;;;-1.74;71.73;97974.56;4939250;28;45529;-73
2020/12/27 04:47:02;;;;;;;8.40;5.03;;;;;;;-2.28;75.00;97967.91;4939063;28;45275;-73
2020/12/27 04:49:29;;;;;;;8.40;5.05;;;;;;;-2.13;73.44;97961.03;4938913;28;45251;-73
2020/12/27 04:51:56;;;;;;;7.60;4.88;;;;;;;-2.03;73.13;97971.78;4939524;28;45355;-73
2020/12/27 04:54:26;;;;;;;8.93;4.60;;;;;;;-1.89;72.87;97965.81;4937043;28;45359;-73
2020/12/27 04:56:53;;;;;;;10.18;5.47;;;;;;;-1.92;72.13;97963.38;4936822;28;45482;-73
2020/12/27 04:59:18;;;;;;;9.73;5.35;;;;;;;-2.60;75.22;97962.63;4945297;28;45354;-73
2020/12/27 05:01:44;;;;;;;11.20;5.88;;;;;;;-2.24;73.34;97951.19;4934102;28;45561;-73
2020/12/27 05:04:10;;;;;;;6.18;4.07;;;;;;;-1.96;73.29;97954.88;4942363;28;45461;-73
2020/12/27 05:06:36;;;;;;;7.47;4.20;;;;;;;-1.92;72.22;97952.94;4945564;28;46113;-73
2020/12/27 05:09:02;;;;;;;6.47;4.25;;;;;;;-1.89;72.08;97950.19;4945471;28;45302;-73
2020/12/27 05:11:29;;;;;;;8.65;4.85;;;;;;;-1.79;72.38;97935.69;4945757;28;45415;-73
2020/12/27 05:13:54;;;;;;;8.98;5.43;;;;;;;-1.85;71.85;97943.00;4944126;28;45370;-73
2020/12/27 05:16:21;;;;;;;7.65;4.55;;;;;;;-1.90;72.38;97951.09;4945201;28;45304;-73
2020/12/27 05:18:50;;;;;;;8.05;4.78;;;;;;;-1.95;71.36;97951.34;4944932;28;45180;-73
2020/12/27 05:21:37;;;;;;;7.97;4.93;;;;;;;-1.83;72.27;97941.16;4945617;28;45461;-73
2020/12/27 05:24:03;;;;;;;8.65;4.78;;;;;;;-1.76;72.10;97937.31;4933531;28;45286;-73
2020/12/27 05:26:29;;;;;;;9.40;5.22;;;;;;;-1.75;71.28;97941.59;4945127;28;46079;-73
2020/12/27 05:28:55;;;;;;;7.53;4.55;;;;;;;-1.73;71.23;97936.28;4944167;28;45252;-73
2020/12/27 05:31:20;;;;;;;7.90;4.80;;;;;;;-1.74;70.70;97942.41;4945279;28;45295;-73
2020/12/27 05:33:47;;;;;;;10.90;4.95;;;;;;;-1.77;71.26;97938.19;4945086;28;45460;-73
2020/12/27 05:36:14;;;;;;;8.27;4.78;;;;;;;-1.76;72.03;97926.88;4944964;28;45426;-73
2020/12/27 05:38:47;;;;;;;7.35;4.60;;;;;;;-1.84;71.90;97919.47;4944095;28;45342;-73
2020/12/27 05:41:14;;;;;;;8.27;4.30;;;;;;;-1.87;71.80;97924.00;4945343;28;45459;-73
2020/12/27 05:43:39;;;;;;;7.68;4.47;;;;;;;-1.95;72.98;97929.66;4946304;28;45559;-73
2020/12/27 05:46:07;;;;;;;7.30;4.60;;;;;;;-2.12;73.39;97922.75;4944826;28;46178;-73
2020/12/27 05:48:33;;;;;;;7.07;4.38;;;;;;;-1.94;71.96;97908.72;4944733;28;45358;-73
2020/12/27 05:51:02;;;;;;;8.00;4.53;;;;;;;-1.91;71.59;97903.31;4945167;28;45408;-73
2020/12/27 05:53:31;;;;;;;7.35;4.00;;;;;;;-2.24;73.80;97898.22;4945051;28;45523;-73
2020/12/27 05:55:59;;;;;;;9.63;4.72;;;;;;;-2.15;73.74;97907.31;4944762;28;46555;-73
2020/12/27 05:58:26;;;;;;;10.57;6.35;;;;;;;-2.91;78.09;97891.34;4945021;28;45262;-73
2020/12/27 06:00:56;;;;;;;10.30;5.97;;;;;;;-2.65;76.21;97892.56;4941623;28;45492;-73
2020/12/27 06:03:26;;;;;;;12.63;6.78;;;;;;;-3.04;77.94;97890.28;4933410;28;45500;-73
2020/12/27 06:05:55;;;;;;;11.03;5.80;;;;;;;-2.52;75.44;97884.09;4938362;28;47015;-74
2020/12/27 06:08:27;;;;;;;8.93;4.60;;;;;;;-2.40;75.17;97878.22;4930567;28;45580;-73
2020/12/27 06:11:05;;;;;;;7.70;4.25;;;;;;;-2.25;74.05;97870.47;4940820;28;45424;-73
2020/12/27 06:14:10;;;;;;;7.07;4.07;;;;;;;-2.11;72.96;97854.94;4955627;28;45513;-73
2020/12/27 06:16:44;;;;;;;6.82;4.40;;;;;;;-2.10;72.02;97846.19;4921083;28;46565;-73
2020/12/27 06:19:26;;;;;;;7.90;3.70;;;;;;;-2.42;74.36;97827.97;4940432;28;45334;-73
2020/12/27 06:22:08;;;;;;;6.72;3.42;;;;;;;-2.13;73.09;97825.53;4940763;28;45497;-73
2020/12/27 06:24:35;;;;;;;7.00;3.63;;;;;;;-2.01;72.44;97810.13;4940723;28;45375;-73
2020/12/27 06:27:02;;;;;;;7.43;3.83;;;;;;;-2.10;72.43;97809.72;4940636;28;46395;-73
2020/12/27 06:29:40;;;;;;;5.55;3.35;;;;;;;-2.14;73.46;97808.22;4949677;28;45231;-73
2020/12/27 06:32:08;;;;;;;6.53;3.83;;;;;;;-2.03;72.85;97804.16;4940671;28;45341;-73
2020/12/27 06:34:34;;;;;;;6.68;3.38;;;;;;;-2.71;76.28;97801.78;4940313;28;45601;-73
2020/12/27 06:37:07;;;;;;;5.25;3.20;;;;;;;-2.29;74.86;97798.63;4940124;28;45454;-73
2020/12/27 06:39:33;;;;;;;6.45;4.00;;;;;;;-2.11;73.64;97783.72;4955209;28;45338;-73
2020/12/27 06:42:14;;;;;;;6.15;3.63;;;;;;;-1.98;72.43;97789.09;4939200;28;45445;-73
2020/12/27 06:44:45;;;;;;;7.32;3.33;;;;;;;-2.03;72.85;97785.91;4940509;28;45457;-73
2020/12/27 06:47:12;;;;;;;5.30;3.10;;;;;;;-2.14;74.55;97784.75;4940166;28;45408;-73
2020/12/27 06:49:37;;;;;;;5.70;2.70;;;;;;;-3.05;78.74;97789.75;4938883;28;45399;-73
2020/12/27 06:52:20;;;;;;;6.50;3.53;;;;;;;-2.95;77.13;97788.31;4940402;28;45521;-73
2020/12/27 06:54:48;;;;;;;6.55;3.58;;;;;;;-2.79;77.40;97791.75;4956325;28;45583;-73
2020/12/27 06:57:45;;;;;;;12.10;8.38;;;;;;;-2.87;76.95;97786.13;4937003;28;46002;-73
2020/12/27 07:00:27;;;;;;;15.07;8.63;;;;;;;-2.92;79.26;97789.94;4940097;28;45838;-73
2020/12/27 07:03:18;;;;;;;14.07;8.15;;;;;;;-3.67;82.64;97780.78;4929312;28;45288;-73
2020/12/27 07:05:44;;;;;;;15.25;9.23;;;;;;;-3.77;84.00;97782.16;4939724;28;45666;-73
2020/12/27 07:08:16;;;;;;;18.05;9.63;;;;;;;-3.93;85.39;97779.50;4938752;28;47240;-73
2020/12/27 07:10:46;;;;;;;15.18;8.90;;;;;;;-3.85;84.85;97785.13;4938240;28;45528;-73
2020/12/27 07:13:12;;;;;;;;;;;;;;;-3.32;82.08;97775.50;4940509;28;45344;-73
2020/12/27 07:15:54;;;;;;;15.48;8.52;;;;;;;-2.76;78.49;97776.91;4940036;28;45244;-73
2020/12/27 07:18:24;;;;;;;15.90;8.55;;;;;;;-2.50;76.71;97767.66;4939268;28;45361;-73
2020/12/27 07:20:54;;;;;;;10.80;6.20;;;;;;;-2.34;76.17;97765.03;4940075;28;45493;-73
2020/12/27 07:23:29;;;;;;;7.75;3.97;;;;;;;-2.31;74.65;97754.44;4939858;28;45227;-73
2020/12/27 07:26:00;;;;;;;6.03;3.88;;;;;;;-2.29;74.77;97747.38;4939916;28;45377;-73
2020/12/27 07:28:27;;;;;;;9.57;4.75;;;;;;;-2.32;75.55;97737.13;4939678;28;45621;-73
2020/12/27 07:31:00;;;;;;;8.45;4.70;;;;;;;-2.20;75.40;97728.63;4939827;28;45362;-74
2020/12/27 07:33:37;;;;;;;5.72;3.40;;;;;;;-2.91;78.37;97729.97;4939206;28;45477;-73
2020/12/27 07:36:10;;;;;;;9.40;3.80;;;;;;;-2.83;78.85;97732.16;4939535;28;45480;-73
2020/12/27 07:39:02;;;;;;;4.75;3.28;;;;;;;-2.23;75.95;97720.97;4939694;28;45437;-73
2020/12/27 07:41:32;;;;;;;7.43;3.53;;;;;;;-2.12;74.82;97709.09;4939098;28;45410;-73
2020/12/27 07:43:59;;;;;;;6.60;3.60;;;;;;;-2.13;74.87;97695.22;4939616;28;45457;-73
2020/12/27 07:46:26;;;;;;;6.93;3.65;;;;;;;-2.19;76.31;97687.78;4939659;28;45231;-73
2020/12/27 07:48:52;;;;;;;6.57;3.70;;;;;;;-2.30;76.64;97680.56;4939122;28;46188;-73
2020/12/27 07:51:24;;;;;;;9.98;6.63;;;;;;;-2.36;77.91;97688.75;4939623;28;45398;-73
2020/12/27 07:53:53;;;;;;;17.52;10.23;;;;;;;-2.37;77.74;97698.31;4939270;28;45246;-73
2020/12/27 07:56:23;;;;;;;18.15;10.88;;;;;;;-2.25;75.93;97688.97;4939422;28;45473;-73
2020/12/27 07:59:00;;;;;;;17.35;10.43;;;;;;;-2.32;75.92;97687.63;4938101;28;47339;-73
2020/12/27 08:01:27;;;;;;;18.58;10.98;;;;;;;-3.23;80.38;97701.34;4931557;28;45324;-73
2020/12/27 08:03:57;;;;;;;17.05;10.70;;;;;;;-2.86;80.64;97683.72;4936438;28;45373;-73
2020/12/27 08:06:24;;;;;;;16.67;11.00;;;;;;;-3.38;82.05;97680.47;4939421;28;45450;-73
2020/12/27 08:08:59;;;;;;;19.85;11.93;;;;;;;-2.65;78.25;97681.66;4939094;28;45240;-73
2020/12/27 08:11:25;;;;;;;16.17;10.10;;;;;;;-2.34;76.98;97681.69;4953933;28;45358;-73
2020/12/27 08:13:53;;;;;;;17.38;9.85;;;;;;;-2.39;76.72;97676.72;4939310;28;45406;-73
2020/12/27 08:16:18;;;;;;;15.20;10.00;;;;;;;-3.27;81.07;97672.06;4930984;28;45343;-74
2020/12/27 08:18:44;;;;;;;14.60;8.35;;;;;;;-2.97;79.04;97660.91;4938809;28;45457;-73
2020/12/27 08:21:10;;;;;;;12.93;7.72;;;;;;;-3.04;79.09;97667.38;4939027;28;45400;-74
2020/12/27 08:23:35;;;;;;;14.10;8.73;;;;;;;-2.24;75.84;97658.53;4939148;28;45402;-73
2020/12/27 08:26:01;;;;;;;12.60;8.18;;;;;;;-2.17;75.06;97646.84;4937561;28;45536;-73
2020/12/27 08:28:27;;;;;;;14.02;8.98;;;;;;;-1.95;75.24;97635.94;4938913;28;45391;-73
2020/12/27 08:30:52;;;;;;;14.52;8.90;;;;;;;-1.88;74.61;97625.16;4936696;28;45393;-74
2020/12/27 08:33:19;;;;;;;13.32;8.38;;;;;;;-2.89;78.93;97615.41;4938665;28;45388;-73
2020/12/27 08:35:47;;;;;;;10.85;6.05;;;;;;;-2.68;77.95;97606.34;4941830;28;45339;-73
2020/12/27 08:38:22;;;;;;;10.48;6.15;;;;;;;-2.31;77.74;97608.56;4938902;28;45542;-73
2020/12/27 08:40:57;;;;;;;9.82;5.47;;;;;;;-1.77;75.21;97597.50;4938626;28;45453;-73
2020/12/27 08:43:49;;;;;;;13.43;8.75;;;;;;;-1.49;73.81;97587.13;4939157;28;45331;-73
2020/12/27 08:46:18;;;;;;;30.83;17.63;;;;;;;-1.38;73.11;97566.41;4937049;28;45724;-73
2020/12/27 08:48:53;;;;;;;14.20;8.07;;;;;;;-1.29;73.70;97558.94;4938466;28;46282;-73
2020/12/27 08:51:21;;;;;;;10.68;6.78;;;;;;;-1.20;73.81;97559.19;4937509;28;45491;-73
2020/12/27 08:53:47;;;;;;;9.57;5.47;;;;;;;-1.10;73.54;97553.38;4938662;28;45488;-73
2020/12/27 08:56:13;;;;;;;11.18;5.47;;;;;;;-1.11;72.43;97539.47;4938601;28;45408;-73
2020/12/27 08:58:38;;;;;;;10.35;6.32;;;;;;;-1.48;75.96;97541.84;4938539;28;45353;-73
2020/12/27 09:01:24;;;;;;;11.55;5.80;;;;;;;-1.38;75.00;97518.59;4953220;28;45807;-73
2020/12/27 09:03:50;;;;;;;12.30;7.47;;;;;;;-1.62;78.68;97516.63;4938505;28;45374;-73
2020/12/27 09:06:15;;;;;;;14.63;9.07;;;;;;;-1.27;76.47;97510.09;4938519;28;45756;-73
2020/12/27 09:08:41;;;;;;;20.08;11.85;;;;;;;-1.15;75.18;97508.47;4938504;28;45256;-73
2020/12/27 09:11:07;;;;;;;22.77;13.10;;;;;;;-1.22;75.88;97495.81;4938482;28;45435;-73
2020/12/27 09:13:41;;;;;;;21.42;12.20;;;;;;;-1.99;79.83;97487.69;4938594;28;45306;-73
2020/12/27 09:16:07;;;;;;;20.55;12.40;;;;;;;-2.26;81.11;97498.84;4952925;28;45499;-73
2020/12/27 09:18:34;;;;;;;20.65;12.27;;;;;;;-2.00;82.13;97484.22;4938119;28;46083;-73
2020/12/27 09:21:06;;;;;;;18.88;11.45;;;;;;;-1.52;78.85;97473.38;4938238;28;45388;-73
2020/12/27 09:23:32;;;;;;;19.70;12.13;;;;;;;-1.29;77.42;97485.88;4938379;28;45246;-74
2020/12/27 09:26:13;;;;;;;17.85;10.70;;;;;;;-1.33;78.57;97480.00;4938240;28;45406;-73
2020/12/27 09:28:39;;;;;;;17.60;10.70;;;;;;;-1.17;77.55;97474.63;4934030;28;45984;-73
2020/12/27 09:31:10;;;;;;;14.55;9.25;;;;;;;-1.13;76.78;97465.66;4938172;28;45521;-73
2020/12/27 09:33:42;;;;;;;17.85;9.82;;;;;;;-1.07;76.38;97459.22;4952904;28;45294;-73
2020/12/27 09:36:09;;;;;;;16.30;10.23;;;;;;;-0.81;75.39;97454.00;4942803;28;45283;-73
2020/12/27 09:38:44;;;;;;;18.00;11.45;;;;;;;-0.62;74.36;97453.59;4936866;28;45923;-73
2020/12/27 09:41:17;;;;;;;20.05;12.43;;;;;;;-1.57;79.23;97451.16;4937959;28;45420;-73
2020/12/27 09:43:56;;;;;;;20.08;12.98;;;;;;;-1.02;76.97;97451.91;4941692;28;45402;-73
2020/12/27 09:46:40;;;;;;;18.98;11.45;;;;;;;-0.76;74.85;97437.09;4956070;28;45578;-73
2020/12/27 09:49:24;;;;;;;16.90;10.23;;;;;;;-0.76;75.03;97431.03;4940948;28;45471;-73
2020/12/27 09:52:14;;;;;;;19.83;11.65;;;;;;;-1.06;79.56;97419.94;4941422;28;45532;-73
2020/12/27 09:54:42;;;;;;;22.55;12.25;;;;;;;-1.45;78.70;97413.84;4938652;28;45277;-73
2020/12/27 09:57:11;;;;;;;27.40;15.20;;;;;;;-0.90;75.47;97408.47;4941169;28;45386;-73
2020/12/27 09:59:37;;;;;;;24.10;14.48;;;;;;;-0.96;78.01;97401.03;4956018;28;48274;-73
2020/12/27 10:02:03;;;;;;;22.80;13.55;;;;;;;-0.78;76.61;97391.97;4941007;28;45448;-73
2020/12/27 10:04:28;;;;;;;21.70;13.63;;;;;;;-0.41;75.03;97387.72;4941155;28;45445;-73
2020/12/27 10:06:54;;;;;;;25.33;16.45;;;;;;;-0.46;74.00;97382.81;4955880;28;45543;-73
2020/12/27 10:09:19;;;;;;;23.50;14.30;;;;;;;-0.31;73.83;97366.09;4941045;28;46028;-73
2020/12/27 10:11:44;;;;;;;18.25;11.05;;;;;;;-0.11;71.53;97370.81;4940751;28;45346;-73
2020/12/27 10:14:10;;;;;;;15.90;9.80;;;;;;;-0.04;70.31;97358.97;4941138;28;45433;-73
2020/12/27 10:16:35;;;;;;;16.20;8.80;;;;;;;-0.03;69.52;97358.00;4940578;28;45608;-73
2020/12/27 10:19:00;;;;;;;12.57;7.30;;;;;;;0.05;69.68;97357.47;4940534;28;46283;-73
2020/12/27 10:21:26;;;;;;;11.93;6.85;;;;;;;0.18;68.51;97350.41;4940865;28;45370;-73
2020/12/27 10:23:51;;;;;;;12.85;7.40;;;;;;;-0.43;69.91;97338.22;4941085;28;45219;-73
2020/12/27 10:26:17;;;;;;;12.82;6.63;;;;;;;-0.13;70.78;97343.94;4940855;28;45494;-73
2020/12/27 10:28:42;;;;;;;17.63;9.65;;;;;;;0.14;69.45;97328.88;4940644;28;46196;-73
2020/12/27 10:31:11;;;;;;;15.40;9.52;;;;;;;0.09;69.51;97330.16;4940744;28;45287;-73
2020/12/27 10:33:36;;;;;;;16.45;10.23;;;;;;;-0.05;72.01;97325.91;4937440;28;45385;-73
2020/12/27 10:36:02;;;;;;;19.15;10.80;;;;;;;-0.55;72.75;97316.41;4946052;28;45604;-73
2020/12/27 10:38:28;;;;;;;18.13;11.45;;;;;;;0.03;71.24;97297.47;4940691;28;45511;-73
2020/12/27 10:40:53;;;;;;;20.63;11.93;;;;;;;0.39;71.33;97294.81;4940549;28;45439;-74
2020/12/27 10:43:19;;;;;;;16.92;10.75;;;;;;;0.04;73.30;97287.81;4940610;28;45455;-73
2020/12/27 10:45:44;;;;;;;18.60;12.32;;;;;;;0.06;74.51;97285.94;4940565;28;45869;-74
2020/12/27 10:48:10;;;;;;;17.15;9.35;;;;;;;-0.82;74.10;97280.84;4940096;28;46077;-73
2020/12/27 10:50:39;;;;;;;15.80;8.80;;;;;;;-0.32;74.02;97267.72;4940602;28;45307;-73
2020/12/27 10:53:04;;;;;;;14.27;9.52;;;;;;;0.05;71.50;97263.34;4937504;28;45465;-73
2020/12/27 10:55:30;;;;;;;16.70;9.38;;;;;;;-0.08;74.48;97253.81;4940255;28;45279;-73
2020/12/27 10:57:55;;;;;;;18.98;9.80;;;;;;;0.47;71.33;97223.63;4940225;28;45595;-73
2020/12/27 11:00:20;;;;;;;18.98;11.02;;;;;;;0.45;70.45;97215.91;4940242;28;45350;-73
2020/12/27 11:02:46;;;;;;;14.50;10.23;;;;;;;0.18;71.78;97213.59;4939997;28;45429;-73
2020/12/27 11:05:11;;;;;;;17.23;9.55;;;;;;;0.22;72.24;97210.59;4940383;28;45469;-73
2020/12/27 11:07:36;;;;;;;15.38;9.10;;;;;;;-0.15;74.60;97203.75;4940091;28;45892;-73
2020/12/27 11:10:02;;;;;;;16.88;9.55;;;;;;;-0.16;74.32;97199.47;4940291;28;45334;-73
2020/12/27 11:12:28;;;;;;;16.40;10.00;;;;;;;-0.11;73.14;97188.69;4940286;28;45311;-73
2020/12/27 11:14:53;;;;;;;15.75;10.48;;;;;;;0.43;71.63;97165.44;4939943;28;45628;-73
2020/12/27 11:17:18;;;;;;;15.13;9.65;;;;;;;0.55;70.11;97151.44;4954452;28;47298;-74
2020/12/27 11:19:44;;;;;;;17.15;10.40;;;;;;;0.28;72.71;97152.59;4939580;28;45338;-73
2020/12/27 11:22:10;;;;;;;15.38;10.65;;;;;;;0.32;72.83;97149.75;4954984;28;45480;-74
2020/12/27 11:24:35;;;;;;;17.15;10.75;;;;;;;0.57;74.19;97130.38;4940042;28;45391;-73
2020/12/27 11:27:01;;;;;;;16.00;9.70;;;;;;;0.69;75.27;97116.31;4939762;28;45392;-73
2020/12/27 11:29:26;;;;;;;13.65;9.00;;;;;;;0.95;71.74;97109.97;4939818;28;45303;-73
2020/12/27 11:31:53;;;;;;;15.82;9.00;;;;;;;1.06;71.69;97099.44;4939930;28;45303;-73
2020/12/27 11:34:18;;;;;;;14.73;8.95;;;;;;;1.02;71.83;97075.31;4939557;28;45330;-72